»·PEaware :: N54ES KMCC-KBUR

N54ES :: KMCC-KBUR

FLIGHT INFORMATION

Flight Status: Arrived
Operator: Privately registered:
United States
More flights under this callsign
Pilot: Anonymous 23965 (23965)
Aircraft: BOEING 717-200
(B712)
More flights by this aircraft type
Origin: KMCC McClellan
United States
Destination: KBUR Bob Hope-Burbank
United States
More flights between these airports :: More routes between these airports
Route: FRA REBRG ROKKR2
File this flight plan on PilotEdge
Remarks:
Altitude:
(Current/Filed)
31,000ft
Speed:
(Current/Filed)
450kts
Departed: 20-Mar-19 02:59 PM
Arrived: 20-Mar-19 03:59 PM
Distance/Time
Traveled:
305nm/1:00
Distance/Time
To Go:
Arrived

Flight Plot

Page will automatically refresh every two minutes.

Flight plan parsing failed; only flown route is shown


Map Options




Map Legend


Flown Route
Filed Route
Departure Airport
Arrival Airport
Navaid (VOR, NDB)
Fix

Horizontal Profiles

Position Reports

Time Latitude Longitude Heading Altitude Ground
Speed
20-Mar-19 14:51 38.682191 -121.399215 180 83ft 0kts
20-Mar-19 14:52 38.682191 -121.399215 180 83ft 0kts
20-Mar-19 14:52 38.682191 -121.399215 180 83ft 0kts
20-Mar-19 14:53 38.682191 -121.399215 180 83ft 0kts
20-Mar-19 14:55 38.682190 -121.399215 180 83ft 0kts
20-Mar-19 14:56 38.682190 -121.399215 180 83ft 0kts
20-Mar-19 14:56 38.682190 -121.399215 180 83ft 0kts
20-Mar-19 14:57 38.681972 -121.399216 180 83ft 5kts
20-Mar-19 14:59 38.673298 -121.400609 181 84ft 128kts
20-Mar-19 14:59 38.640400 -121.387520 135 1314ft 154kts
20-Mar-19 15:00 38.610439 -121.343246 134 1617ft 214kts
20-Mar-19 15:02 38.556496 -121.266337 132 4491ft 258kts
20-Mar-19 15:02 38.511811 -121.213846 139 7510ft 268kts
20-Mar-19 15:03 38.455387 -121.147406 139 10841ft 294kts
20-Mar-19 15:04 38.387125 -121.067052 139 12697ft 350kts
20-Mar-19 15:05 38.314505 -120.981800 139 15573ft 361kts
20-Mar-19 15:06 38.239352 -120.893840 139 18146ft 372kts
20-Mar-19 15:07 38.161986 -120.803560 139 20364ft 383kts
20-Mar-19 15:08 38.082378 -120.710945 139 22400ft 393kts
20-Mar-19 15:09 38.001759 -120.617445 139 24176ft 402kts
20-Mar-19 15:10 37.921733 -120.524922 139 25561ft 413kts
20-Mar-19 15:11 37.837252 -120.427553 139 26977ft 420kts
20-Mar-19 15:12 37.752029 -120.329642 140 28361ft 423kts
20-Mar-19 15:13 37.665183 -120.230199 140 30027ft 419kts
20-Mar-19 15:14 37.582061 -120.135329 140 31050ft 421kts
20-Mar-19 15:15 37.495034 -120.036309 140 31088ft 418kts
20-Mar-19 15:16 37.411741 -119.941849 140 31095ft 415kts
20-Mar-19 15:17 37.329480 -119.848856 140 31096ft 416kts
20-Mar-19 15:18 37.244276 -119.752828 141 31096ft 416kts
20-Mar-19 15:19 37.158430 -119.656369 141 31083ft 417kts
20-Mar-19 15:20 37.058562 -119.597302 177 31084ft 410kts
20-Mar-19 15:21 36.944153 -119.598370 180 31086ft 411kts
20-Mar-19 15:22 36.829035 -119.600369 180 31087ft 411kts
20-Mar-19 15:23 36.716374 -119.602314 180 31085ft 411kts
20-Mar-19 15:24 36.606678 -119.604201 180 31085ft 413kts
20-Mar-19 15:25 36.512849 -119.605812 180 31085ft 414kts
20-Mar-19 15:26 36.415668 -119.607476 180 31085ft 415kts
20-Mar-19 15:27 36.300142 -119.609449 180 31086ft 416kts
20-Mar-19 15:28 36.187460 -119.611367 181 31086ft 417kts
20-Mar-19 15:29 36.073829 -119.613294 181 31087ft 417kts
20-Mar-19 15:30 35.957555 -119.619859 188 31090ft 417kts
20-Mar-19 15:31 35.844226 -119.642815 189 31095ft 417kts
20-Mar-19 15:32 35.728545 -119.666311 189 31096ft 417kts
20-Mar-19 15:33 35.613081 -119.674488 174 31102ft 418kts
20-Mar-19 15:34 35.496948 -119.658125 173 29456ft 415kts
20-Mar-19 15:35 35.383467 -119.628298 167 27341ft 408kts
20-Mar-19 15:36 35.276968 -119.597260 168 25349ft 380kts
20-Mar-19 15:37 35.183608 -119.543533 145 23488ft 373kts
20-Mar-19 15:38 35.102552 -119.466981 145 21687ft 364kts
20-Mar-19 15:39 35.023110 -119.392342 145 19926ft 356kts
20-Mar-19 15:40 34.940553 -119.330337 153 18165ft 345kts
20-Mar-19 15:41 34.857087 -119.274267 153 16354ft 340kts
20-Mar-19 15:42 34.774829 -119.220014 154 14906ft 331kts
20-Mar-19 15:43 34.696216 -119.168293 154 14028ft 319kts
20-Mar-19 15:44 34.620289 -119.118746 154 13532ft 300kts
20-Mar-19 15:45 34.546176 -119.069899 149 11830ft 304kts
20-Mar-19 15:46 34.480496 -119.011036 144 9764ft 290kts
20-Mar-19 15:47 34.418438 -118.952461 141 8713ft 280kts
20-Mar-19 15:48 34.358863 -118.892006 138 7861ft 274kts
20-Mar-19 15:49 34.301487 -118.829199 138 7179ft 278kts
20-Mar-19 15:50 34.258514 -118.767156 116 6893ft 238kts
20-Mar-19 15:51 34.231657 -118.695075 115 4970ft 203kts
20-Mar-19 15:52 34.209591 -118.635130 114 4347ft 192kts
20-Mar-19 15:53 34.200299 -118.572027 91 3955ft 192kts
20-Mar-19 15:54 34.199714 -118.508295 91 3039ft 187kts
20-Mar-19 15:55 34.198953 -118.449211 91 2083ft 145kts
20-Mar-19 15:56 34.198343 -118.402404 92 1374ft 139kts
20-Mar-19 15:57 34.197743 -118.357372 90 787ft 68kts
20-Mar-19 15:58 34.198543 -118.355259 348 786ft 0kts
20-Mar-19 15:59 34.198944 -118.357399 272 786ft 26kts
20-Mar-19 16:00 34.198977 -118.364142 270 786ft 12kts
20-Mar-19 16:01 34.199906 -118.363784 89 786ft 0kts
20-Mar-19 16:02 34.199907 -118.363783 89 786ft 0kts
20-Mar-19 16:03 34.199907 -118.363782 89 786ft 0kts
20-Mar-19 16:04 34.199907 -118.363781 89 786ft 0kts
20-Mar-19 16:05 34.199907 -118.363780 89 786ft 0kts
20-Mar-19 16:06 34.199907 -118.363779 89 786ft 0kts
20-Mar-19 16:07 34.199907 -118.363778 89 786ft 0kts
20-Mar-19 16:08 34.199907 -118.363777 89 786ft 0kts

Navigation Log

Ident Type
Flight plan parsing failed, navigation log unavailable